createdAt,value
2018-03-22T00:00:46.916Z,75.48
2018-03-22T00:03:13.346Z,74.76
2018-03-22T00:05:39.738Z,65.44
2018-03-22T00:08:06.263Z,72.42
2018-03-22T00:10:32.706Z,74.41
2018-03-22T00:12:59.102Z,66.01
2018-03-22T00:15:25.602Z,73.36
2018-03-22T00:17:52.076Z,70.40
2018-03-22T00:20:18.491Z,75.41
2018-03-22T00:22:44.877Z,71.84
2018-03-22T00:25:11.354Z,65.06
2018-03-22T00:27:37.740Z,67.17
2018-03-22T00:30:04.215Z,66.33
2018-03-22T00:32:30.711Z,66.85
2018-03-22T00:34:57.188Z,69.41
2018-03-22T00:37:23.617Z,72.73
2018-03-22T00:39:50.068Z,67.79
2018-03-22T00:42:16.462Z,66.26
2018-03-22T00:44:44.842Z,68.90
2018-03-22T00:47:11.558Z,70.05
2018-03-22T00:49:37.969Z,70.45
2018-03-22T00:52:04.711Z,67.85
2018-03-22T00:54:31.148Z,71.97
2018-03-22T00:56:57.565Z,72.91
2018-03-22T00:59:23.979Z,74.64
2018-03-22T01:01:50.409Z,72.09
2018-03-22T01:04:16.846Z,68.18
2018-03-22T01:06:43.489Z,71.49
2018-03-22T01:09:09.853Z,70.79
2018-03-22T01:11:36.250Z,74.01
2018-03-22T01:14:02.758Z,77.59
2018-03-22T01:16:29.399Z,73.45
2018-03-22T01:18:55.766Z,71.78
2018-03-22T01:21:22.266Z,74.10
2018-03-22T01:23:48.678Z,74.70
2018-03-22T01:26:15.111Z,70.67
2018-03-22T01:28:41.593Z,78.41
2018-03-22T01:31:07.974Z,76.96
2018-03-22T01:33:34.506Z,73.63
2018-03-22T01:36:01.174Z,74.34
2018-03-22T01:38:27.574Z,75.05
2018-03-22T01:40:54.128Z,74.14
2018-03-22T01:43:20.598Z,73.57
2018-03-22T01:45:47.010Z,73.68
2018-03-22T01:48:13.483Z,72.63
2018-03-22T01:50:39.854Z,70.95
2018-03-22T01:53:14.328Z,71.31
2018-03-22T01:55:40.678Z,72.03
2018-03-22T01:58:07.181Z,77.31
2018-03-22T02:00:33.618Z,77.29
2018-03-22T02:03:00.002Z,74.32
2018-03-22T02:05:26.562Z,74.89
2018-03-22T02:07:53.174Z,75.11
2018-03-22T02:10:19.558Z,78.63
2018-03-22T02:12:45.991Z,76.85
2018-03-22T02:15:12.417Z,75.39
2018-03-22T02:17:38.937Z,76.02
2018-03-22T02:20:05.385Z,80.11
2018-03-22T02:22:31.855Z,79.43
2018-03-22T02:24:58.234Z,78.69
2018-03-22T02:27:24.666Z,81.75
2018-03-22T02:29:51.020Z,81.17
2018-03-22T02:32:17.383Z,77.68
2018-03-22T02:34:43.766Z,73.69
2018-03-22T02:37:10.147Z,75.17
2018-03-22T02:39:36.618Z,76.47
2018-03-22T02:42:03.114Z,77.47
2018-03-22T02:44:29.565Z,80.16
2018-03-22T02:46:55.994Z,79.35
2018-03-22T02:49:22.500Z,81.04
2018-03-22T02:51:48.892Z,78.32
2018-03-22T02:54:15.248Z,82.03
2018-03-22T02:56:41.662Z,78.50
2018-03-22T02:59:08.027Z,78.69
2018-03-22T03:01:34.444Z,79.79
2018-03-22T03:04:00.918Z,79.18
2018-03-22T03:06:27.337Z,79.30
2018-03-22T03:08:53.754Z,79.54
2018-03-22T03:11:20.229Z,80.16
2018-03-22T03:13:46.844Z,77.20
2018-03-22T03:16:13.310Z,79.76
2018-03-22T03:18:39.741Z,78.12
2018-03-22T03:21:06.110Z,78.83
2018-03-22T03:23:32.481Z,77.88
2018-03-22T03:25:58.912Z,75.80
2018-03-22T03:28:25.374Z,75.33
2018-03-22T03:30:51.726Z,77.46
2018-03-22T03:33:18.166Z,77.00
2018-03-22T03:35:44.578Z,75.00
2018-03-22T03:38:10.971Z,74.76
2018-03-22T03:40:37.381Z,76.80
2018-03-22T03:43:03.845Z,81.12
2018-03-22T03:45:30.310Z,77.74
2018-03-22T03:47:56.759Z,76.67
2018-03-22T03:50:23.179Z,78.55
2018-03-22T03:52:49.602Z,79.32
2018-03-22T03:55:16.062Z,75.24
2018-03-22T03:57:42.538Z,76.94
2018-03-22T04:00:09.692Z,81.44
2018-03-22T04:02:37.056Z,80.73
2018-03-22T04:05:04.399Z,80.53
2018-03-22T04:07:30.787Z,79.97
2018-03-22T04:09:57.202Z,80.35
2018-03-22T04:12:23.657Z,77.93
2018-03-22T04:14:50.092Z,82.02
2018-03-22T04:17:16.528Z,82.72
2018-03-22T04:19:42.999Z,81.17
2018-03-22T04:22:09.441Z,80.97
2018-03-22T04:24:35.878Z,79.47
2018-03-22T04:27:02.298Z,84.30
2018-03-22T04:29:28.658Z,81.03
2018-03-22T04:31:55.085Z,82.88
2018-03-22T04:34:21.532Z,80.00
2018-03-22T04:36:47.914Z,81.29
2018-03-22T04:39:14.414Z,81.45
2018-03-22T04:41:40.773Z,82.97
2018-03-22T04:44:07.138Z,79.26
2018-03-22T04:46:33.513Z,80.40
2018-03-22T04:48:59.934Z,81.58
2018-03-22T04:51:26.412Z,80.51
2018-03-22T04:53:52.846Z,83.82
2018-03-22T04:56:19.269Z,81.79
2018-03-22T04:58:45.683Z,81.65
2018-03-22T05:01:12.126Z,81.03
2018-03-22T05:03:38.594Z,80.92
2018-03-22T05:06:04.978Z,81.54
2018-03-22T05:08:31.398Z,79.97
2018-03-22T05:10:57.813Z,78.93
2018-03-22T05:13:24.362Z,82.78
2018-03-22T05:15:50.825Z,81.87
2018-03-22T05:18:17.230Z,81.58
2018-03-22T05:20:43.654Z,82.58
2018-03-22T05:23:10.089Z,81.06
2018-03-22T05:25:36.477Z,82.78
2018-03-22T05:28:02.913Z,80.54
2018-03-22T05:30:29.318Z,80.92
2018-03-22T05:32:55.739Z,81.81
2018-03-22T05:35:22.147Z,82.38
2018-03-22T05:37:48.535Z,82.78
2018-03-22T05:40:15.066Z,83.58
2018-03-22T05:42:41.509Z,81.77
2018-03-22T05:45:08.045Z,82.18
2018-03-22T05:47:34.476Z,83.19
2018-03-22T05:50:00.902Z,79.93
2018-03-22T05:52:27.298Z,81.41
2018-03-22T05:54:53.693Z,80.12
2018-03-22T05:57:20.145Z,79.91
2018-03-22T05:59:46.559Z,84.40
2018-03-22T06:02:13.074Z,83.35
2018-03-22T06:04:40.433Z,83.35
2018-03-22T06:07:07.021Z,81.18
2018-03-22T06:09:33.648Z,81.75
2018-03-22T06:12:00.090Z,83.35
2018-03-22T06:14:26.681Z,81.92
2018-03-22T06:16:53.416Z,84.72
2018-03-22T06:19:19.906Z,83.20
2018-03-22T06:21:46.389Z,83.28
2018-03-22T06:24:12.877Z,81.09
2018-03-22T06:26:39.392Z,84.26
2018-03-22T06:29:05.990Z,83.95
2018-03-22T06:31:32.467Z,82.66
2018-03-22T06:33:58.882Z,82.90
2018-03-22T06:36:26.477Z,82.57
2018-03-22T06:38:53.065Z,83.39
2018-03-22T06:41:19.554Z,83.35
2018-03-22T06:43:46.150Z,82.26
2018-03-22T06:46:12.669Z,83.26
2018-03-22T06:48:39.160Z,84.21
2018-03-22T06:51:05.742Z,86.57
2018-03-22T06:53:32.386Z,84.71
2018-03-22T06:55:58.932Z,83.31
2018-03-22T06:58:25.369Z,83.07
2018-03-22T07:00:52.039Z,82.65
2018-03-22T07:03:18.502Z,83.56
2018-03-22T07:05:44.953Z,83.63
2018-03-22T07:08:11.518Z,83.55
2018-03-22T07:10:38.176Z,83.21
2018-03-22T07:13:04.689Z,82.84
2018-03-22T07:15:31.137Z,82.96
2018-03-22T07:17:57.547Z,83.73
2018-03-22T07:20:24.045Z,84.77
2018-03-22T07:22:50.494Z,83.03
2018-03-22T07:25:16.971Z,84.06
2018-03-22T07:27:43.722Z,82.04
2018-03-22T07:30:10.204Z,83.54
2018-03-22T07:32:36.622Z,82.73
2018-03-22T07:35:03.113Z,83.73
2018-03-22T07:37:29.630Z,84.44
2018-03-22T07:39:56.043Z,83.86
2018-03-22T07:42:22.606Z,81.85
2018-03-22T07:44:49.084Z,83.99
2018-03-22T07:47:15.612Z,82.35
2018-03-22T07:49:42.049Z,83.79
2018-03-22T07:52:08.472Z,82.59
2018-03-22T07:54:35.046Z,81.32
2018-03-22T07:57:01.526Z,85.26
2018-03-22T07:59:27.978Z,83.26
2018-03-22T08:01:54.526Z,80.88
2018-03-22T08:04:20.992Z,84.04
2018-03-22T08:06:47.334Z,83.16
2018-03-22T08:09:13.862Z,82.69
2018-03-22T08:11:40.346Z,81.43
2018-03-22T08:14:06.865Z,81.67
2018-03-22T08:16:33.366Z,81.91
2018-03-22T08:18:59.893Z,84.16
2018-03-22T08:21:26.274Z,84.56
2018-03-22T08:23:52.675Z,82.63
2018-03-22T08:26:19.211Z,82.19
2018-03-22T08:28:45.651Z,83.69
2018-03-22T08:31:12.139Z,84.48
2018-03-22T08:33:38.526Z,83.47
2018-03-22T08:36:05.113Z,84.80
2018-03-22T08:38:31.541Z,82.51
2018-03-22T08:40:57.949Z,84.21
2018-03-22T08:43:24.394Z,82.75
2018-03-22T08:45:50.840Z,81.11
2018-03-22T08:48:17.285Z,84.03
2018-03-22T08:50:43.645Z,83.18
2018-03-22T08:53:10.122Z,83.10
2018-03-22T08:55:36.538Z,82.33
2018-03-22T08:58:02.998Z,82.66
2018-03-22T09:00:29.462Z,83.56
2018-03-22T09:02:55.873Z,81.60
2018-03-22T09:05:22.458Z,82.96
2018-03-22T09:07:48.924Z,82.83
2018-03-22T09:10:15.381Z,83.80
2018-03-22T09:12:41.770Z,81.84
2018-03-22T09:15:08.241Z,84.15
2018-03-22T09:17:34.666Z,82.80
2018-03-22T09:20:01.029Z,83.24
2018-03-22T09:22:27.432Z,84.51
2018-03-22T09:24:53.966Z,81.15
2018-03-22T09:27:20.381Z,80.49
2018-03-22T09:29:46.785Z,81.15
2018-03-22T09:32:13.234Z,81.19
2018-03-22T09:34:39.694Z,82.87
2018-03-22T09:37:06.201Z,83.10
2018-03-22T09:39:32.664Z,83.36
2018-03-22T09:41:59.202Z,81.28
2018-03-22T09:44:25.663Z,80.99
2018-03-22T09:46:52.106Z,82.10
2018-03-22T09:49:18.519Z,80.17
2018-03-22T09:51:44.971Z,83.49
2018-03-22T09:54:11.526Z,83.51
2018-03-22T09:56:38.114Z,80.92
2018-03-22T09:59:04.681Z,81.79
2018-03-22T10:01:31.253Z,81.39
2018-03-22T10:03:57.821Z,81.67
2018-03-22T10:06:24.370Z,80.93
2018-03-22T10:08:50.902Z,82.28
2018-03-22T10:11:17.471Z,83.36
2018-03-22T10:13:43.953Z,82.82
2018-03-22T10:16:10.410Z,81.55
2018-03-22T10:18:36.842Z,83.50
2018-03-22T10:21:03.299Z,81.22
2018-03-22T10:23:29.846Z,81.37
2018-03-22T10:25:56.358Z,81.55
2018-03-22T10:28:22.814Z,81.19
2018-03-22T10:30:49.243Z,80.64
2018-03-22T10:33:15.702Z,82.16
2018-03-22T10:35:42.105Z,83.76
2018-03-22T10:38:08.624Z,83.61
2018-03-22T10:40:35.051Z,81.76
2018-03-22T10:43:01.424Z,83.26
2018-03-22T10:45:27.902Z,80.06
2018-03-22T10:47:54.322Z,79.45
2018-03-22T10:50:20.833Z,80.39
2018-03-22T10:52:47.202Z,81.39
2018-03-22T10:55:13.630Z,83.85
2018-03-22T10:57:40.010Z,84.00
2018-03-22T11:00:06.560Z,82.13
2018-03-22T11:02:39.022Z,82.94
2018-03-22T11:05:05.523Z,82.59
2018-03-22T11:07:32.118Z,81.03
2018-03-22T11:09:58.494Z,80.87
2018-03-22T11:12:24.925Z,84.09
2018-03-22T11:14:51.342Z,83.85
2018-03-22T11:17:17.841Z,80.93
2018-03-22T11:19:44.748Z,79.56
2018-03-22T11:22:13.839Z,82.26
2018-03-22T11:24:41.071Z,81.87
2018-03-22T11:27:07.609Z,81.00
2018-03-22T11:29:33.982Z,80.00
2018-03-22T11:32:00.410Z,80.95
2018-03-22T11:34:26.846Z,82.82
2018-03-22T11:36:53.301Z,83.13
2018-03-22T11:39:19.742Z,83.52
2018-03-22T11:41:46.149Z,83.84
2018-03-22T11:44:12.661Z,83.68
2018-03-22T11:46:39.065Z,82.05
2018-03-22T11:49:05.631Z,80.88
2018-03-22T11:51:32.038Z,81.10
2018-03-22T11:53:58.442Z,82.60
2018-03-22T11:56:24.867Z,79.18
2018-03-22T11:58:51.266Z,82.67
2018-03-22T12:01:17.675Z,80.74
2018-03-22T12:03:44.168Z,83.04
2018-03-22T12:06:10.887Z,82.73
2018-03-22T12:08:37.299Z,82.36
2018-03-22T12:11:03.883Z,84.61
2018-03-22T12:13:30.503Z,81.41
2018-03-22T12:15:56.906Z,83.92
2018-03-22T12:18:23.330Z,82.67
2018-03-22T12:20:49.715Z,82.51
2018-03-22T12:23:16.456Z,84.02
2018-03-22T12:25:42.870Z,82.84
2018-03-22T12:28:09.302Z,80.99
2018-03-22T12:30:35.786Z,83.25
2018-03-22T12:33:02.265Z,81.70
2018-03-22T12:35:28.734Z,83.88
2018-03-22T12:37:55.114Z,84.44
2018-03-22T12:40:21.497Z,81.40
2018-03-22T12:42:47.963Z,81.65
2018-03-22T12:45:14.582Z,82.37
2018-03-22T12:47:41.183Z,84.52
2018-03-22T12:50:07.689Z,83.70
2018-03-22T12:52:34.148Z,81.55
2018-03-22T12:55:00.593Z,82.41
2018-03-22T12:57:27.137Z,83.00
2018-03-22T12:59:53.586Z,82.24
2018-03-22T13:02:20.150Z,79.97
2018-03-22T13:04:46.617Z,81.92
2018-03-22T13:07:12.982Z,79.47
2018-03-22T13:09:39.386Z,80.50
2018-03-22T13:12:05.873Z,82.60
2018-03-22T13:14:32.298Z,83.72
2018-03-22T13:16:58.791Z,83.70
2018-03-22T13:19:25.398Z,83.25
2018-03-22T13:21:51.863Z,84.34
2018-03-22T13:24:18.261Z,81.69
2018-03-22T13:26:44.649Z,84.01
2018-03-22T13:29:11.227Z,84.42
2018-03-22T13:31:37.690Z,82.41
2018-03-22T13:34:04.159Z,81.78
2018-03-22T13:36:30.618Z,82.17
2018-03-22T13:38:57.034Z,82.58
2018-03-22T13:41:23.478Z,81.69
2018-03-22T13:43:49.903Z,83.95
2018-03-22T13:46:16.334Z,81.45
2018-03-22T13:48:42.795Z,81.64
2018-03-22T13:51:09.283Z,81.39
2018-03-22T13:53:35.694Z,84.60
2018-03-22T13:56:02.190Z,83.95
2018-03-22T13:58:28.586Z,83.52
2018-03-22T14:00:54.994Z,83.44
2018-03-22T14:03:21.382Z,82.75
2018-03-22T14:05:47.861Z,82.76
2018-03-22T14:08:14.299Z,82.86
2018-03-22T14:10:40.709Z,82.12
2018-03-22T14:13:07.105Z,82.72
2018-03-22T14:15:33.522Z,83.62
2018-03-22T14:17:59.961Z,84.14
2018-03-22T14:20:26.417Z,84.85
2018-03-22T14:22:52.955Z,83.52
2018-03-22T14:25:19.335Z,84.88
2018-03-22T14:27:45.789Z,82.39
2018-03-22T14:30:12.210Z,85.33
2018-03-22T14:32:38.750Z,82.71
2018-03-22T14:35:05.222Z,83.42
2018-03-22T14:37:31.708Z,82.08
2018-03-22T14:39:58.194Z,82.32
2018-03-22T14:42:24.666Z,86.52
2018-03-22T14:44:51.162Z,85.56
2018-03-22T14:47:17.633Z,84.20
2018-03-22T14:49:44.138Z,82.83
2018-03-22T14:52:10.646Z,82.98
2018-03-22T14:54:37.038Z,83.38
2018-03-22T14:57:03.448Z,83.89
2018-03-22T14:59:30.010Z,83.54
2018-03-22T15:01:56.485Z,84.37
2018-03-22T15:04:22.942Z,83.98
2018-03-22T15:06:49.370Z,85.55
2018-03-22T15:09:15.817Z,83.96
2018-03-22T15:11:42.309Z,84.56
2018-03-22T15:14:08.737Z,84.27
2018-03-22T15:16:35.164Z,84.07
2018-03-22T15:19:01.619Z,82.58
2018-03-22T15:21:28.235Z,83.48
2018-03-22T15:23:54.654Z,84.12
2018-03-22T15:26:21.313Z,83.78
2018-03-22T15:28:47.784Z,83.46
2018-03-22T15:31:14.360Z,83.61
2018-03-22T15:33:40.810Z,85.37
2018-03-22T15:36:07.306Z,85.80
2018-03-22T15:38:33.759Z,84.78
2018-03-22T15:41:00.176Z,84.31
2018-03-22T15:43:26.629Z,83.03
2018-03-22T15:45:53.011Z,83.91
2018-03-22T15:48:19.447Z,83.11
2018-03-22T15:50:46.026Z,83.82
2018-03-22T15:53:12.486Z,85.57
2018-03-22T15:55:39.099Z,84.76
2018-03-22T15:58:05.609Z,83.75
2018-03-22T16:00:32.030Z,83.57
2018-03-22T16:02:58.496Z,85.12
2018-03-22T16:05:25.082Z,84.98
2018-03-22T16:07:51.637Z,83.69
2018-03-22T16:10:18.064Z,82.97
2018-03-22T16:12:44.522Z,82.95
2018-03-22T16:15:11.060Z,81.75
2018-03-22T16:17:37.507Z,82.45
2018-03-22T16:20:03.914Z,82.14
2018-03-22T16:22:30.382Z,81.03
2018-03-22T16:24:56.858Z,82.50
2018-03-22T16:27:23.386Z,81.95
2018-03-22T16:29:49.903Z,83.87
2018-03-22T16:32:16.246Z,84.55
2018-03-22T16:34:43.371Z,82.91
2018-03-22T16:37:10.431Z,83.22
2018-03-22T16:39:37.073Z,82.11
2018-03-22T16:42:03.560Z,82.67
2018-03-22T16:44:30.161Z,82.49
2018-03-22T16:46:56.654Z,81.94
2018-03-22T16:49:23.165Z,82.37
2018-03-22T16:51:49.747Z,83.69
2018-03-22T16:54:16.180Z,82.97
2018-03-22T16:56:42.644Z,84.03
2018-03-22T16:59:09.113Z,84.02
2018-03-22T17:01:35.630Z,84.70
2018-03-22T17:04:01.993Z,86.16
2018-03-22T17:06:28.426Z,85.28
2018-03-22T17:08:55.002Z,85.69
2018-03-22T17:11:21.394Z,86.00
2018-03-22T17:13:47.829Z,86.18
2018-03-22T17:16:14.218Z,84.77
2018-03-22T17:18:40.597Z,85.55
2018-03-22T17:21:07.125Z,83.60
2018-03-22T17:23:33.508Z,83.59
2018-03-22T17:25:59.995Z,85.89
2018-03-22T17:28:26.424Z,85.16
2018-03-22T17:30:52.819Z,84.33
2018-03-22T17:33:19.234Z,85.08
2018-03-22T17:35:45.629Z,83.54
2018-03-22T17:38:11.997Z,82.53
2018-03-22T17:40:38.431Z,82.74
2018-03-22T17:43:04.834Z,82.81
2018-03-22T17:45:31.254Z,84.85
2018-03-22T17:47:57.647Z,83.66
2018-03-22T17:50:24.050Z,83.75
2018-03-22T17:52:50.462Z,84.21
2018-03-22T17:55:16.942Z,83.53
2018-03-22T17:57:43.524Z,80.96
2018-03-22T18:00:09.958Z,81.15
2018-03-22T18:02:36.345Z,82.95
2018-03-22T18:05:02.861Z,83.71
2018-03-22T18:07:29.327Z,84.52
2018-03-22T18:09:55.730Z,82.62
2018-03-22T18:12:22.188Z,83.54
2018-03-22T18:14:48.686Z,84.64
2018-03-22T18:17:15.198Z,83.35
2018-03-22T18:19:41.580Z,84.09
2018-03-22T18:22:07.923Z,82.65
2018-03-22T18:24:34.289Z,83.41
2018-03-22T18:27:00.680Z,84.55
2018-03-22T18:29:27.066Z,84.82
2018-03-22T18:31:53.489Z,83.13
2018-03-22T18:34:20.006Z,82.97
2018-03-22T18:36:46.391Z,83.84
2018-03-22T18:39:12.829Z,85.07
2018-03-22T18:41:39.378Z,83.86
2018-03-22T18:44:05.966Z,85.11
2018-03-22T18:46:32.898Z,84.46
2018-03-22T18:48:59.536Z,85.32
2018-03-22T18:51:26.353Z,85.09
2018-03-22T18:53:53.026Z,85.96
2018-03-22T18:56:19.526Z,85.53
2018-03-22T18:58:46.881Z,85.70
2018-03-22T19:01:13.397Z,84.75
2018-03-22T19:03:39.975Z,84.51
2018-03-22T19:06:06.593Z,83.35
2018-03-22T19:08:33.002Z,84.42
2018-03-22T19:10:59.517Z,84.16
2018-03-22T19:13:26.296Z,85.51
2018-03-22T19:15:52.792Z,84.48
2018-03-22T19:18:19.279Z,84.68
2018-03-22T19:20:45.697Z,83.73
2018-03-22T19:23:12.199Z,84.71
2018-03-22T19:25:38.585Z,82.75
2018-03-22T19:28:05.102Z,83.08
2018-03-22T19:30:31.637Z,84.16
2018-03-22T19:32:58.078Z,84.10
2018-03-22T19:35:24.550Z,83.30
2018-03-22T19:37:51.054Z,83.01
2018-03-22T19:40:17.537Z,82.42
2018-03-22T19:42:43.973Z,82.28
2018-03-22T19:45:10.428Z,83.21
2018-03-22T19:47:36.911Z,83.51
2018-03-22T19:50:03.314Z,82.33
2018-03-22T19:52:29.797Z,83.51
2018-03-22T19:54:56.505Z,84.08
2018-03-22T19:57:22.941Z,83.88
2018-03-22T19:59:49.481Z,83.65
2018-03-22T20:02:15.926Z,84.61
2018-03-22T20:04:42.326Z,82.86
2018-03-22T20:07:08.762Z,84.73
2018-03-22T20:09:35.197Z,84.58
2018-03-22T20:12:01.799Z,83.08
2018-03-22T20:14:28.178Z,84.27
2018-03-22T20:16:54.590Z,84.22
2018-03-22T20:19:21.099Z,84.58
2018-03-22T20:21:47.869Z,83.09
2018-03-22T20:24:14.346Z,85.47
2018-03-22T20:26:40.845Z,84.70
2018-03-22T20:29:07.304Z,84.67
2018-03-22T20:31:33.749Z,87.29
2018-03-22T20:34:00.190Z,84.69
2018-03-22T20:36:26.790Z,85.69
2018-03-22T20:38:53.228Z,87.10
2018-03-22T20:41:19.610Z,85.80
2018-03-22T20:43:45.995Z,85.51
2018-03-22T20:46:12.399Z,83.37
2018-03-22T20:48:38.798Z,85.00
2018-03-22T20:51:05.162Z,83.75
2018-03-22T20:53:31.517Z,84.92
2018-03-22T20:55:58.026Z,83.00
2018-03-22T20:58:24.402Z,82.85
2018-03-22T21:00:50.794Z,83.38
2018-03-22T21:03:17.277Z,84.41
2018-03-22T21:05:43.710Z,84.91
2018-03-22T21:08:10.138Z,84.86
2018-03-22T21:10:36.572Z,84.54
2018-03-22T21:13:02.949Z,83.78
2018-03-22T21:15:29.409Z,85.65
2018-03-22T21:17:55.873Z,85.23
2018-03-22T21:20:22.261Z,83.84
2018-03-22T21:22:48.790Z,83.39
2018-03-22T21:25:15.209Z,83.85
2018-03-22T21:27:41.769Z,83.12
2018-03-22T21:30:08.217Z,82.68
2018-03-22T21:32:34.654Z,82.07
2018-03-22T21:35:01.075Z,82.09
2018-03-22T21:37:27.520Z,83.28
2018-03-22T21:39:53.934Z,83.46
2018-03-22T21:42:20.382Z,84.44
2018-03-22T21:44:46.810Z,82.04
2018-03-22T21:47:25.563Z,83.53
2018-03-22T21:49:52.078Z,83.02
2018-03-22T21:52:30.873Z,82.96
2018-03-22T21:54:57.243Z,82.48
2018-03-22T21:57:23.643Z,83.47
2018-03-22T21:59:49.997Z,83.22
2018-03-22T22:02:16.420Z,83.32
2018-03-22T22:04:42.942Z,82.47
2018-03-22T22:07:09.382Z,81.43
2018-03-22T22:09:35.826Z,81.43
2018-03-22T22:12:02.315Z,81.92
2018-03-22T22:14:28.685Z,82.32
2018-03-22T22:16:55.125Z,82.73
2018-03-22T22:19:21.562Z,81.99
2018-03-22T22:21:47.954Z,84.05
2018-03-22T22:24:14.349Z,82.68
2018-03-22T22:26:40.779Z,83.24
2018-03-22T22:29:07.195Z,82.84
2018-03-22T22:31:33.607Z,83.40
2018-03-22T22:34:00.222Z,83.79
2018-03-22T22:36:26.621Z,84.57
2018-03-22T22:38:53.086Z,84.51
2018-03-22T22:41:19.489Z,84.71
2018-03-22T22:43:45.859Z,85.19
2018-03-22T22:46:12.220Z,84.49
2018-03-22T22:48:38.604Z,82.91
2018-03-22T22:51:04.962Z,82.91
2018-03-22T22:53:31.351Z,83.48
2018-03-22T22:55:57.850Z,82.08
2018-03-22T22:58:24.254Z,81.35
2018-03-22T23:00:50.645Z,82.73
2018-03-22T23:03:17.106Z,81.94
2018-03-22T23:05:43.502Z,82.92
2018-03-22T23:08:09.859Z,83.89
2018-03-22T23:10:36.344Z,83.68
2018-03-22T23:13:02.774Z,82.61
2018-03-22T23:15:29.132Z,82.17
2018-03-22T23:17:55.614Z,80.62
2018-03-22T23:20:22.014Z,81.57
2018-03-22T23:22:48.445Z,80.97
2018-03-22T23:25:14.899Z,80.49
2018-03-22T23:27:41.302Z,81.41
2018-03-22T23:30:07.672Z,81.26
2018-03-22T23:32:34.077Z,81.75
2018-03-22T23:35:00.433Z,82.28
2018-03-22T23:37:26.798Z,82.80
2018-03-22T23:39:53.209Z,83.58
2018-03-22T23:42:19.734Z,84.34
2018-03-22T23:44:46.173Z,82.95
2018-03-22T23:47:12.635Z,82.57
2018-03-22T23:49:39.058Z,82.54
2018-03-22T23:52:05.437Z,82.96
2018-03-22T23:54:31.838Z,82.18
2018-03-22T23:56:58.250Z,81.13
2018-03-22T23:59:24.633Z,81.44
